• Join FlightAware (Why Join?)
  • Login
  • US Flag 
12:08AM EST


 

Airport Tracker/Info


-or-


 

Live Flight TrackerFlight Track Log ✈ N238BG ✈ 24-Jun-2013 ✈ KMRC - KTKI

Flight Track Log - Related Links

Times and Time Zones

All times are in EDT time to prevent confusion due to time zone crossing. See the N238BG flight status page for this flight to view local times or setup timezone preferences in your user account.

Time Position Orientation Groundspeed Altitude Reporting Facility
EDT Latitude Longitude Course Direction KTS MPH feet Rate Location/Type
02:23PM 35.4606 -87.5122 253° West 288 331 13,500  Level Memphis Center
02:24PM 35.4433 -87.5792 252° West 221 254 15,300 1,740 Climbing Memphis Center
02:25PM 35.4242 -87.6461 251° West 211 243 17,000 1,500 Climbing Memphis Center
02:26PM 35.4150 -87.7100 260° West 201 231 18,400 1,320 Climbing Memphis Center
02:27PM 35.4061 -87.7817 261° West 201 231 19,700 1,140 Climbing Memphis Center
02:28PM 35.4279 -87.7219 253° West  Level FlightAware Approximate
02:28PM 35.3969 -87.8381 259° West 201 231 20,700  Level Memphis Center
02:29PM 35.3858 -87.9097 259° West 201 231 21,900 1,080 Climbing Memphis Center
02:30PM 35.3703 -87.9789 255° West 206 237 22,900 1,020 Climbing Memphis Center
02:31PM 35.3550 -88.0531 256° West 216 249 24,000 960 Climbing Memphis Center
02:32PM 35.3397 -88.1247 255° West 221 254 24,900 900 Climbing Memphis Center
02:33PM 35.3222 -88.2017 254° West 226 260 25,900 900 Climbing Memphis Center
02:34PM 35.3069 -88.2783 256° West 226 260 26,700 900 Climbing Memphis Center
02:35PM 35.2917 -88.3575 257° West 231 266 27,800 1,320 Climbing Memphis Center
02:36PM 35.2758 -88.4267 254° West 231 266 29,400 1,140 Climbing Memphis Center
02:37PM 35.2603 -88.4856 252° West 210 242 30,100 600 Climbing Memphis Center
02:38PM 35.2464 -88.5442 254° West 187 215 30,700 600 Climbing Memphis Center
02:39PM 35.2286 -88.6108 252° West 203 234 31,300 600 Climbing Memphis Center
02:40PM 35.2128 -88.6797 254° West 208 239 31,900 300 Climbing Memphis Center
02:41PM 35.1953 -88.7639 256° West 222 255 32,000  Climbing Memphis Center
02:42PM 35.1756 -88.8506 254° West 249 287 32,000  Level Memphis Center
02:43PM 35.1600 -88.9450 259° West 267 307 32,000  Level Memphis Center
02:44PM 35.1400 -89.0392 255° West 286 329 32,000  Level Memphis Center
02:45PM 35.1181 -89.1411 255° West 295 339 32,000  Level Memphis Center
02:46PM 35.0942 -89.2403 254° West 300 345 32,000  Level Memphis Center
02:47PM 35.0719 -89.3422 255° West 307 353 32,000  Level Memphis Center
02:48PM 35.0497 -89.4439 255° West 307 353 32,000  Level Memphis Center
02:49PM 35.0256 -89.5481 254° West 312 359 32,000  Level Memphis Center
02:50PM 35.0033 -89.6522 255° West 318 366 32,000  Level Memphis Center
02:51PM 34.9828 -89.7564 256° West 318 366 32,000  Level Memphis Center
02:52PM 34.9583 -89.8656 255° West 324 373 32,000  Level Memphis Center
02:53PM 34.9294 -89.9694 251° West 324 373 32,000 -60 Level Memphis Center
02:54PM 34.9047 -90.0708 253° West 319 367 31,900 -60 Descending Memphis Center
02:55PM 34.8819 -90.1747 255° West 319 367 31,900  Level Memphis Center
02:56PM 34.8572 -90.2761 253° West 319 367 32,000  Climbing Memphis Center
02:57PM 34.8342 -90.3672 253° West 319 367 32,000  Level Memphis Center
02:58PM 34.8111 -90.4708 255° West 319 367 32,000  Level Memphis Center
02:59PM 34.7839 -90.5744 252° West 319 367 32,000 -60 Level Memphis Center
03:00PM 34.7608 -90.6781 255° West 319 367 31,900  Descending Memphis Center
03:01PM 34.7333 -90.7817 252° West 319 367 32,000  Climbing Memphis Center
03:02PM 34.7078 -90.8875 254° West 319 367 32,000  Level Memphis Center
03:03PM 34.6825 -90.9911 254° West 324 373 32,000  Level Memphis Center
03:04PM 34.6547 -91.1044 253° West 324 373 32,000  Level Memphis Center
03:05PM 34.6289 -91.2078 253° West 319 367 32,000 -60 Level Memphis Center
03:06PM 34.6072 -91.3158 256° West 319 367 31,900 -60 Descending Memphis Center
03:07PM 34.5794 -91.4192 252° West 319 367 31,900  Level Memphis Center
03:08PM 34.5514 -91.5247 252° West 324 373 32,000  Climbing Memphis Center
03:09PM 34.5294 -91.6303 256° West 324 373 32,000  Level Memphis Center
03:10PM 34.5075 -91.7256 254° West 324 373 32,000  Level Memphis Center
03:11PM 34.4750 -91.8361 250° West 318 366 32,000  Level Memphis Center
03:12PM 34.4508 -91.9414 254° West 318 366 32,000 -60 Level Memphis Center
03:13PM 34.4222 -92.0467 252° West 323 372 31,900  Descending Memphis Center
03:14PM 34.3958 -92.1494 253° West 323 372 32,000  Climbing Memphis Center
03:15PM 34.3692 -92.2544 253° West 323 372 32,000  Level Memphis Center
03:16PM 34.3425 -92.3619 253° West 323 372 32,000  Level Memphis Center
03:17PM 34.3261 -92.4697 260° West 318 366 32,000  Level Memphis Center
03:18PM 34.3075 -92.5775 258° West 324 373 32,000  Level Memphis Center
03:19PM 34.2847 -92.6825 255° West 324 373 32,000  Level Memphis Center
03:20PM 34.2658 -92.7925 258° West 335 386 32,000  Level Memphis Center
03:21PM 34.2450 -92.8975 257° West 335 386 32,000  Level Memphis Center
03:22PM 34.2242 -93.0022 256° West 335 386 32,000  Level Memphis Center
03:23PM 34.2050 -93.1072 258° West 335 386 32,000 -60 Level Memphis Center
03:24PM 34.1819 -93.2144 255° West 335 386 31,900  Descending Memphis Center
03:26PM 34.1394 -93.4364 257° West 319 367 32,000  Climbing Fort Worth Center
03:27PM 34.1178 -93.5428 256° West 319 367 32,000  Level Fort Worth Center
03:28PM 34.0961 -93.6464 256° West 319 367 32,000 -60 Level Fort Worth Center
03:29PM 34.0678 -93.7506 252° West 319 367 31,900  Descending Fort Worth Center
03:30PM 34.0372 -93.8519 250° West 325 374 32,000  Climbing Fort Worth Center
03:31PM 34.0067 -93.9533 250° West 325 374 31,900  Descending Fort Worth Center
03:32PM 33.9761 -94.0575 251° West 330 380 32,000  Climbing Fort Worth Center
03:33PM 33.9453 -94.1561 249° West 330 380 32,000  Level Fort Worth Center
03:34PM 33.9125 -94.2600 249° West 330 380 32,000  Level Fort Worth Center
03:35PM 33.8839 -94.3611 251° West 330 380 32,000  Level Fort Worth Center
03:36PM 33.8528 -94.4622 250° West 330 380 32,000 -120 Level Fort Worth Center
03:38PM 33.7928 -94.6667 251° West 330 380 31,700 -420 Descending Fort Worth Center
03:39PM 33.7575 -94.7753 249° West 336 387 30,800 -900 Descending Fort Worth Center
03:40PM 33.7242 -94.8836 250° West 342 394 30,000 -840 Descending Fort Worth Center
03:41PM 33.6931 -94.9994 252° West 353 406 29,200 -840 Descending Fort Worth Center
03:42PM 33.6597 -95.1100 250° West 353 406 28,400 -1,080 Descending Fort Worth Center
03:44PM 33.5886 -95.3314 249° West 353 406 26,000 -1,320 Descending Fort Worth Center
03:45PM 33.5506 -95.4419 248° West 358 412 24,600 -1,440 Descending Fort Worth Center
03:46PM 33.5189 -95.5497 251° West 358 412 23,200 -1,440 Descending Fort Worth Center
03:47PM 33.4911 -95.6450 251° West 337 388 21,800 -2,340 Descending Fort Worth Center
03:48PM 33.4550 -95.7553 249° West 329 379 18,600 -3,240 Descending Fort Worth Center
03:50PM 33.3918 -95.9129 244° Southwest  Level FlightAware Approximate
03:57PM 33.1692 -96.5734 253° West  Level FlightAware Approximate
03:58PM 33.1667 -96.5833 253° West  Level FlightAware Approximate
03:59PM 33.1771 -96.5888 253° West  Level Estimated
04:00PM 33.1771 -96.5888 253° West  Level Estimated
04:01PM 33.1771 -96.5888 253° West  Level Estimated
04:02PM 33.1771 -96.5888 253° West  Level Estimated
04:03PM 33.1771 -96.5888 253° West  Level Estimated
04:04PM 33.1771 -96.5888 253° West  Level Estimated
04:05PM 33.1771 -96.5888 253° West  Level Estimated
04:06PM 33.1771 -96.5888 253° West  Level Estimated
04:07PM 33.1771 -96.5888 253° West  Level Estimated
04:08PM 33.1771 -96.5888 253° West  Level Estimated
04:09PM 33.1771 -96.5888 253° West  Level Estimated
04:10PM 33.1771 -96.5888 253° West  Level Estimated
04:11PM 33.1771 -96.5888 253° West  Level Estimated
04:12PM 33.1771 -96.5888 253° West  Level Estimated
04:13PM 33.1771 -96.5888 253° West  Level Estimated